Time;durP1;ratioP1;P1;durP2;ratioP2;P2;SDS_P1;SDS_P2;PMS_P1;PMS_P2;Temp;Humidity;BMP_temperature;BMP_pressure;BME280_temperature;BME280_humidity;BME280_pressure;Samples;Min_cycle;Max_cycle;Signal;HPM_P1;HPM_P2
2022/11/10 00:02:23;;;;;;;;;;;;;;;20.90;48.04;97202.50;5158121;27;19959;-30
2022/11/10 00:04:48;;;;;;;;;;;;;;;20.92;48.08;97211.81;5158186;27;19994;-30
2022/11/10 00:07:13;;;;;;;;;;;;;;;20.87;48.09;97209.75;5157906;27;19911;-29
2022/11/10 00:09:39;;;;;;;;;;;;;;;20.90;48.04;97208.78;5158074;27;19907;-30
2022/11/10 00:12:04;;;;;;;;;;;;;;;20.83;48.26;97206.41;5157961;27;19997;-30
2022/11/10 00:17:14;;;;;;;;;;;;;;;20.87;48.21;97209.75;5158241;27;20396;-30
2022/11/10 00:19:39;;;;;;;;;;;;;;;20.88;48.05;97203.00;5157887;27;19954;-29
2022/11/10 00:22:04;;;;;;;;;;;;;;;20.90;48.16;97206.00;5157463;27;19915;-30
2022/11/10 00:24:29;;;;;;;;;;;;;;;20.86;48.18;97213.72;5144951;27;20351;-30
2022/11/10 00:26:55;;;;;;;;;;;;;;;20.85;48.19;97203.94;5137013;27;19912;-30
2022/11/10 00:29:20;;;;;;;;;;;;;;;20.89;48.04;97210.03;5138155;27;19908;-30
2022/11/10 00:31:46;;;;;;;;;;;;;;;20.85;48.20;97209.44;5155300;27;19914;-30
2022/11/10 00:34:12;;;;;;;;;;;;;;;20.85;48.27;97214.97;5156914;27;20007;-30
2022/11/10 00:36:38;;;;;;;;;;;;;;;20.86;48.19;97219.25;5157526;27;20377;-31
2022/11/10 00:39:04;;;;;;;;;;;;;;;20.86;48.16;97213.72;5157461;27;19907;-29
2022/11/10 00:41:29;;;;;;;;;;;;;;;20.79;48.33;97222.38;5157383;27;19907;-30
2022/11/10 00:43:54;;;;;;;;;;;;;;;20.83;48.42;97213.91;5157247;27;19914;-30
2022/11/10 00:46:19;;;;;;;;;;;;;;;20.83;48.38;97220.19;5157406;27;19913;-30
2022/11/10 00:48:45;;;;;;;;;;;;;;;20.88;48.18;97216.78;5157128;27;19991;-30
2022/11/10 00:51:29;;;;;;;;;;;;;;;20.89;48.23;97217.53;5157246;27;19913;-30
2022/11/10 00:53:54;;;;;;;;;;;;;;;20.82;48.56;97217.91;5156965;27;19911;-31
2022/11/10 00:56:20;;;;;;;;;;;;;;;20.81;48.48;97217.16;5157141;27;19907;-30
2022/11/10 00:58:45;;;;;;;;;;;;;;;20.84;48.42;97221.72;5157259;27;19911;-30
2022/11/10 01:01:12;;;;;;;;;;;;;;;20.85;48.33;97230.75;5156458;27;19911;-30
2022/11/10 01:03:38;;;;;;;;;;;;;;;20.85;48.40;97234.25;5156984;27;20352;-31
2022/11/10 01:06:04;;;;;;;;;;;;;;;20.85;48.66;97233.50;5156956;27;19957;-32
2022/11/10 01:08:30;;;;;;;;;;;;;;;20.83;48.55;97224.94;5138247;27;19915;-31
2022/11/10 01:11:01;;;;;;;;;;;;;;;20.84;48.44;97226.47;5156903;27;19997;-31
2022/11/10 01:13:27;;;;;;;;;;;;;;;20.82;48.53;97234.44;5156892;27;20005;-30
2022/11/10 01:15:52;;;;;;;;;;;;;;;20.79;48.62;97228.66;5156799;27;19994;-30
2022/11/10 01:18:17;;;;;;;;;;;;;;;20.79;48.77;97233.41;5156891;27;19907;-30
2022/11/10 01:20:43;;;;;;;;;;;;;;;20.76;48.98;97237.13;5156552;27;20266;-31
2022/11/10 01:23:09;;;;;;;;;;;;;;;20.74;48.98;97237.59;5156962;27;19907;-30
2022/11/10 01:25:34;;;;;;;;;;;;;;;20.72;48.99;97237.31;5156618;27;20371;-30
2022/11/10 01:28:02;;;;;;;;;;;;;;;20.76;48.79;97237.88;5156409;27;19998;-31
2022/11/10 01:30:28;;;;;;;;;;;;;;;20.79;48.67;97234.16;5156472;27;19911;-31
2022/11/10 01:32:53;;;;;;;;;;;;;;;20.78;48.73;97240.91;5156530;27;19914;-30
2022/11/10 01:35:19;;;;;;;;;;;;;;;20.77;48.79;97235.88;5156525;27;19964;-31
2022/11/10 01:37:44;;;;;;;;;;;;;;;20.79;48.81;97236.91;5156240;27;19907;-30
2022/11/10 01:40:10;;;;;;;;;;;;;;;20.77;48.90;97233.13;5156580;27;19906;-30
2022/11/10 01:43:01;;;;;;;;;;;;;;;20.79;48.74;97234.16;5156152;27;20281;-30
2022/11/10 01:45:59;;;;;;;;;;;;;;;20.74;48.77;97228.56;5151954;27;20377;-31
2022/11/10 01:48:30;;;;;;;;;;;;;;;20.75;48.78;97230.09;5110354;27;19911;-30
2022/11/10 01:50:58;;;;;;;;;;;;;;;20.74;48.76;97229.31;5156076;27;19906;-30
2022/11/10 01:53:26;;;;;;;;;;;;;;;20.71;48.97;97224.75;5156098;27;19918;-31
2022/11/10 01:55:52;;;;;;;;;;;;;;;20.73;49.16;97221.53;5155886;27;19907;-30
2022/11/10 01:58:20;;;;;;;;;;;;;;;20.73;49.10;97221.53;5137341;27;19907;-31
2022/11/10 02:00:45;;;;;;;;;;;;;;;20.72;49.00;97220.75;5156024;27;19907;-30
2022/11/10 02:03:17;;;;;;;;;;;;;;;20.78;48.93;97226.34;5156228;27;19917;-30
2022/11/10 02:05:44;;;;;;;;;;;;;;;20.68;49.30;97224.94;5155778;27;19919;-30
2022/11/10 02:08:11;;;;;;;;;;;;;;;20.66;49.12;97222.66;5155740;27;20350;-30
2022/11/10 02:10:36;;;;;;;;;;;;;;;20.66;49.10;97219.88;5155820;27;19910;-31
2022/11/10 02:13:02;;;;;;;;;;;;;;;20.64;49.08;97208.59;5154920;27;19917;-32
2022/11/10 02:15:27;;;;;;;;;;;;;;;20.66;49.26;97216.38;5155641;27;19907;-33
2022/11/10 02:17:52;;;;;;;;;;;;;;;20.67;49.20;97215.91;5155587;27;19907;-31
2022/11/10 02:20:19;;;;;;;;;;;;;;;20.65;49.39;97214.84;5155374;27;19915;-31
2022/11/10 02:22:44;;;;;;;;;;;;;;;20.62;49.21;97213.06;5155262;27;20153;-32
2022/11/10 02:25:20;;;;;;;;;;;;;;;20.67;49.00;97217.91;5155100;27;20025;-31
2022/11/10 02:27:45;;;;;;;;;;;;;;;20.74;48.85;97218.28;5155137;27;19961;-31
2022/11/10 02:30:11;;;;;;;;;;;;;;;20.69;49.27;97221.69;5155215;27;20415;-30
2022/11/10 02:32:58;;;;;;;;;;;;;;;20.63;49.18;97218.09;5138067;27;19937;-30
2022/11/10 02:38:26;;;;;;;;;;;;;;;20.59;49.33;97214.00;5138088;27;19952;-30
2022/11/10 02:40:51;;;;;;;;;;;;;;;20.63;49.37;97214.59;5155384;27;19911;-31
2022/11/10 02:43:22;;;;;;;;;;;;;;;20.60;49.33;97218.28;5154385;27;19911;-30
2022/11/10 02:45:47;;;;;;;;;;;;;;;20.60;49.31;97219.03;5155345;27;19967;-31
2022/11/10 02:48:13;;;;;;;;;;;;;;;20.58;49.41;97210.47;5155487;27;20335;-30
2022/11/10 02:50:38;;;;;;;;;;;;;;;20.59;49.14;97206.50;5155309;27;19907;-30
2022/11/10 02:53:04;;;;;;;;;;;;;;;20.62;49.35;97210.31;5155333;27;19907;-30
2022/11/10 02:55:30;;;;;;;;;;;;;;;20.62;49.19;97213.06;5155226;27;19907;-31
2022/11/10 02:57:55;;;;;;;;;;;;;;;20.61;49.34;97214.28;5155338;27;19907;-30
2022/11/10 03:00:21;;;;;;;;;;;;;;;20.57;49.49;97213.72;5155171;27;19929;-31
2022/11/10 03:02:46;;;;;;;;;;;;;;;20.58;49.23;97213.25;5155397;27;19907;-30
2022/11/10 03:05:12;;;;;;;;;;;;;;;20.56;49.50;97212.19;5155294;27;19907;-30
2022/11/10 03:07:37;;;;;;;;;;;;;;;20.58;49.26;97212.47;5155101;27;19911;-30
2022/11/10 03:10:03;;;;;;;;;;;;;;;20.60;49.14;97218.28;5155169;27;20362;-31
2022/11/10 03:12:28;;;;;;;;;;;;;;;20.66;49.16;97210.84;5155125;27;20263;-30
2022/11/10 03:14:53;;;;;;;;;;;;;;;20.64;49.07;97213.34;5155016;27;19911;-32
2022/11/10 03:17:19;;;;;;;;;;;;;;;20.61;49.19;97222.56;5155404;27;19907;-30
2022/11/10 03:19:44;;;;;;;;;;;;;;;20.60;49.30;97218.28;5155415;27;19907;-30
2022/11/10 03:22:14;;;;;;;;;;;;;;;20.52;49.47;97223.41;5155180;27;20372;-30
2022/11/10 03:24:39;;;;;;;;;;;;;;;20.55;49.36;97224.44;5156084;27;19907;-31
2022/11/10 03:27:05;;;;;;;;;;;;;;;20.59;49.12;97219.50;5158757;27;20358;-31
2022/11/10 03:29:30;;;;;;;;;;;;;;;20.53;49.36;97221.41;5158870;27;19907;-31
2022/11/10 03:31:55;;;;;;;;;;;;;;;20.54;49.39;97226.44;5158842;27;19907;-30
2022/11/10 03:34:21;;;;;;;;;;;;;;;20.56;49.15;97223.22;5158762;27;20077;-31
2022/11/10 03:45:57;;;;;;;;;;;;;;;20.50;49.49;97236.13;5073217;28;20014;-31
2022/11/10 03:48:22;;;;;;;;;;;;;;;20.48;49.39;97233.09;5074413;28;19956;-30
2022/11/10 03:50:48;;;;;;;;;;;;;;;20.55;49.39;97243.72;5074480;28;19947;-31
2022/11/10 03:53:13;;;;;;;;;;;;;;;20.52;49.41;97247.44;5073700;28;20477;-31
2022/11/10 03:55:38;;;;;;;;;;;;;;;20.53;49.21;97254.47;5074450;28;19908;-31
2022/11/10 03:58:03;;;;;;;;;;;;;;;20.53;49.37;97240.69;5074442;28;19916;-31
2022/11/10 04:00:29;;;;;;;;;;;;;;;20.55;49.17;97236.22;5074223;28;19916;-31
2022/11/10 04:03:00;;;;;;;;;;;;;;;20.53;49.34;97243.44;5074218;28;19908;-30
2022/11/10 04:09:00;;;;;;;;;;;;;;;20.54;49.18;97237.47;5034041;28;19978;-30
2022/11/10 04:19:59;;;;;;;;;;;;;;;20.55;49.00;97233.47;5082689;28;20019;-31
2022/11/10 04:25:24;;;;;;;;;;;;;;;20.49;49.28;97243.63;5106480;28;20031;-30
2022/11/10 04:27:50;;;;;;;;;;;;;;;20.43;49.36;97248.28;5114516;28;19911;-31
2022/11/10 04:30:15;;;;;;;;;;;;;;;20.51;49.15;97254.19;5114542;28;19960;-30
2022/11/10 04:32:40;;;;;;;;;;;;;;;20.49;49.31;97254.66;5114142;28;19946;-32
2022/11/10 04:35:06;;;;;;;;;;;;;;;20.46;49.07;97260.34;5110740;28;19916;-31
2022/11/10 04:37:31;;;;;;;;;;;;;;;20.45;49.16;97256.84;5146762;27;20442;-30
2022/11/10 04:39:57;;;;;;;;;;;;;;;20.38;49.31;97257.97;5136731;27;19913;-30
2022/11/10 04:42:22;;;;;;;;;;;;;;;20.36;49.45;97265.19;5136857;27;19915;-30
2022/11/10 04:44:47;;;;;;;;;;;;;;;20.47;49.18;97254.38;5136701;27;19911;-31
2022/11/10 04:47:13;;;;;;;;;;;;;;;20.40;49.39;97258.22;5136437;27;20002;-30
2022/11/10 04:49:38;;;;;;;;;;;;;;;20.48;49.06;97260.63;5136604;27;19907;-31
2022/11/10 04:52:37;;;;;;;;;;;;;;;20.44;49.28;97258.81;5136386;27;19990;-30
2022/11/10 04:55:03;;;;;;;;;;;;;;;20.49;49.16;97262.16;5136197;27;19908;-31
2022/11/10 04:57:28;;;;;;;;;;;;;;;20.48;49.08;97277.19;5136352;27;20308;-31
2022/11/10 04:59:53;;;;;;;;;;;;;;;20.38;49.20;97280.00;5136013;27;20377;-31
2022/11/10 05:02:18;;;;;;;;;;;;;;;20.43;48.99;97279.34;5136307;27;19907;-31
2022/11/10 05:04:44;;;;;;;;;;;;;;;20.49;48.93;97276.72;5136344;27;19952;-31
2022/11/10 05:07:09;;;;;;;;;;;;;;;20.43;49.15;97284.84;5136071;27;19911;-31
2022/11/10 05:09:34;;;;;;;;;;;;;;;20.44;48.97;97283.63;5136338;27;20006;-30
2022/11/10 05:12:00;;;;;;;;;;;;;;;20.46;48.80;97287.91;5136513;27;19979;-30
2022/11/10 05:14:25;;;;;;;;;;;;;;;20.44;48.99;97288.38;5135910;27;19907;-30
2022/11/10 05:16:50;;;;;;;;;;;;;;;20.39;49.09;97289.81;5136375;27;19911;-31
2022/11/10 05:19:16;;;;;;;;;;;;;;;20.49;48.85;97287.72;5136263;27;19908;-32
2022/11/10 05:21:41;;;;;;;;;;;;;;;20.45;49.05;97287.13;5135889;27;20001;-31
2022/11/10 05:24:06;;;;;;;;;;;;;;;20.48;48.79;97296.47;5135789;27;19907;-31
2022/11/10 05:26:31;;;;;;;;;;;;;;;20.44;48.81;97302.91;5136021;27;20002;-30
2022/11/10 05:28:57;;;;;;;;;;;;;;;20.43;48.98;97303.38;5135758;27;19911;-31
2022/11/10 05:31:22;;;;;;;;;;;;;;;20.41;48.99;97306.59;5136064;27;19918;-31
2022/11/10 05:33:47;;;;;;;;;;;;;;;20.49;48.94;97309.00;5135859;27;20335;-30
2022/11/10 05:36:13;;;;;;;;;;;;;;;20.45;48.85;97306.44;5135662;27;19914;-30
2022/11/10 05:38:38;;;;;;;;;;;;;;;20.43;49.03;97306.13;5135648;27;19911;-30
2022/11/10 05:41:03;;;;;;;;;;;;;;;20.46;48.83;97301.69;5135627;27;19911;-31
2022/11/10 05:43:29;;;;;;;;;;;;;;;20.44;48.99;97304.91;5135667;27;20251;-31
2022/11/10 05:45:54;;;;;;;;;;;;;;;20.40;48.81;97298.78;5135648;27;19971;-32
2022/11/10 05:48:19;;;;;;;;;;;;;;;20.33;49.10;97302.66;5135461;27;19996;-31
2022/11/10 05:50:45;;;;;;;;;;;;;;;20.38;49.03;97299.28;5135669;27;19907;-30
2022/11/10 05:53:10;;;;;;;;;;;;;;;20.37;49.00;97299.75;5135291;27;20000;-30
2022/11/10 05:55:36;;;;;;;;;;;;;;;20.39;48.92;97306.34;5135328;27;19907;-30
2022/11/10 05:58:01;;;;;;;;;;;;;;;20.38;48.96;97302.06;5135454;27;19911;-33
2022/11/10 06:00:27;;;;;;;;;;;;;;;20.42;48.88;97305.38;5135211;27;19950;-31
2022/11/10 06:03:03;;;;;;;;;;;;;;;20.41;48.82;97290.06;5135033;27;20014;-30
2022/11/10 06:05:29;;;;;;;;;;;;;;;20.44;48.77;97288.38;5135115;27;20002;-31
2022/11/10 06:07:55;;;;;;;;;;;;;;;20.37;48.78;97289.50;5135023;27;19915;-31
2022/11/10 06:10:21;;;;;;;;;;;;;;;20.35;48.90;97296.69;5135033;27;19922;-31
2022/11/10 06:12:46;;;;;;;;;;;;;;;20.37;49.01;97299.75;5135007;27;19968;-31
2022/11/10 06:15:12;;;;;;;;;;;;;;;20.42;48.52;97294.34;5135025;27;20386;-30
2022/11/10 06:17:37;;;;;;;;;;;;;;;20.43;48.61;97303.38;5134970;27;19911;-30
2022/11/10 06:20:03;;;;;;;;;;;;;;;20.39;48.69;97298.06;5116547;28;20415;-30
2022/11/10 06:22:28;;;;;;;;;;;;;;;20.31;48.95;97294.09;5135080;27;20279;-31
2022/11/10 06:24:53;;;;;;;;;;;;;;;20.40;48.59;97302.31;5134834;27;19907;-30
2022/11/10 06:27:19;;;;;;;;;;;;;;;20.39;48.67;97302.81;5134802;27;19912;-30
2022/11/10 06:29:44;;;;;;;;;;;;;;;20.32;48.73;97317.66;5151949;27;19960;-30
2022/11/10 06:32:10;;;;;;;;;;;;;;;20.31;48.72;97312.63;5155501;27;19956;-32
2022/11/10 06:34:35;;;;;;;;;;;;;;;20.40;48.59;97321.59;5155879;27;19907;-30
2022/11/10 06:37:01;;;;;;;;;;;;;;;20.42;48.53;97329.41;5136893;27;19928;-31
2022/11/10 06:39:26;;;;;;;;;;;;;;;20.39;48.36;97331.13;5155347;27;19911;-31
2022/11/10 06:41:51;;;;;;;;;;;;;;;20.28;48.91;97338.34;5152233;27;19914;-31
2022/11/10 06:44:17;;;;;;;;;;;;;;;20.34;48.74;97328.97;5155480;27;19914;-30
2022/11/10 06:46:42;;;;;;;;;;;;;;;20.35;48.66;97341.56;5155412;27;20370;-32
2022/11/10 06:49:07;;;;;;;;;;;;;;;20.38;48.62;97345.38;5150765;27;19961;-30
2022/11/10 06:51:33;;;;;;;;;;;;;;;20.37;48.57;97352.88;5110505;27;19915;-31
2022/11/10 06:53:58;;;;;;;;;;;;;;;20.41;48.55;97352.66;5128307;27;20747;-30
2022/11/10 06:56:23;;;;;;;;;;;;;;;20.38;48.62;97365.41;5128751;27;20010;-31
2022/11/10 06:58:49;;;;;;;;;;;;;;;20.38;48.56;97361.91;5128434;27;19915;-30
2022/11/10 07:01:14;;;;;;;;;;;;;;;20.40;48.60;97360.19;5132757;27;19915;-31
2022/11/10 07:03:39;;;;;;;;;;;;;;;20.31;48.79;97368.47;5129826;27;20278;-30
2022/11/10 07:06:05;;;;;;;;;;;;;;;20.33;48.68;97368.00;5130708;27;19975;-30
2022/11/10 07:08:30;;;;;;;;;;;;;;;20.40;48.63;97367.69;5131383;27;19962;-31
2022/11/10 07:10:55;;;;;;;;;;;;;;;20.37;48.53;97374.16;5136142;27;19913;-31
2022/11/10 07:13:21;;;;;;;;;;;;;;;20.37;48.74;97376.91;5136285;27;20339;-30
2022/11/10 07:15:47;;;;;;;;;;;;;;;20.34;48.80;97377.81;5117680;27;20359;-31
2022/11/10 07:18:12;;;;;;;;;;;;;;;20.32;48.88;97378.25;5136582;27;19990;-31
2022/11/10 07:20:37;;;;;;;;;;;;;;;20.32;48.83;97378.25;5141672;27;19919;-31
2022/11/10 07:23:04;;;;;;;;;;;;;;;20.35;48.89;97379.31;5155086;27;19991;-30
2022/11/10 07:25:30;;;;;;;;;;;;;;;20.32;48.87;97392.03;5157040;27;19906;-32
2022/11/10 07:27:55;;;;;;;;;;;;;;;20.37;48.82;97391.44;5156642;27;19922;-31
2022/11/10 07:30:21;;;;;;;;;;;;;;;20.33;49.00;97393.56;5156856;27;19911;-30
2022/11/10 07:32:46;;;;;;;;;;;;;;;20.30;49.19;97394.50;5156695;27;19910;-32
2022/11/10 07:35:11;;;;;;;;;;;;;;;20.35;48.80;97395.84;5156721;27;19919;-30
2022/11/10 07:37:37;;;;;;;;;;;;;;;20.39;48.71;97386.22;5152605;27;19914;-34
2022/11/10 07:40:02;;;;;;;;;;;;;;;20.33;49.02;97388.06;5154135;27;19915;-32
2022/11/10 07:42:28;;;;;;;;;;;;;;;20.27;49.15;97386.44;5156506;27;19946;-33
2022/11/10 07:44:53;;;;;;;;;;;;;;;20.33;49.02;97393.56;5156623;27;19932;-31
2022/11/10 07:47:18;;;;;;;;;;;;;;;20.35;49.08;97396.66;5156075;27;19919;-32
2022/11/10 07:49:43;;;;;;;;;;;;;;;20.34;48.90;97392.34;5155904;27;19906;-31
2022/11/10 07:52:09;;;;;;;;;;;;;;;20.38;48.98;97390.22;5155406;27;19911;-35
2022/11/10 07:54:34;;;;;;;;;;;;;;;20.30;49.23;97391.75;5156157;27;20422;-32
2022/11/10 07:56:59;;;;;;;;;;;;;;;20.37;49.02;97388.69;5151924;27;20637;-32
2022/11/10 07:59:25;;;;;;;;;;;;;;;20.27;49.30;97389.19;5135511;27;19911;-31
2022/11/10 08:01:50;;;;;;;;;;;;;;;20.37;49.09;97393.44;5135255;27;20283;-32
2022/11/10 08:04:15;;;;;;;;;;;;;;;20.32;49.41;97396.78;5117017;27;20371;-31
2022/11/10 08:06:41;;;;;;;;;;;;;;;20.28;49.41;97388.69;5135607;27;19953;-31
2022/11/10 08:09:06;;;;;;;;;;;;;;;20.33;49.27;97384.53;5135424;27;19918;-31
2022/11/10 08:11:31;;;;;;;;;;;;;;;20.38;49.06;97392.97;5149307;27;20009;-30
2022/11/10 08:13:57;;;;;;;;;;;;;;;20.40;49.17;97390.47;5155225;27;19959;-30
2022/11/10 08:16:22;;;;;;;;;;;;;;;20.38;49.08;97395.72;5155558;27;19997;-31
2022/11/10 08:18:47;;;;;;;;;;;;;;;20.39;49.18;97408.28;5155909;27;19942;-32
2022/11/10 08:21:13;;;;;;;;;;;;;;;19.44;52.74;97407.16;5155126;27;20287;-29
2022/11/10 08:23:38;;;;;;;;;;;;;;;19.79;51.75;97410.31;5153989;27;19907;-31
2022/11/10 08:26:04;;;;;;;;;;;;;;;20.09;50.61;97414.81;5155499;27;19971;-30
2022/11/10 08:28:29;;;;;;;;;;;;;;;20.28;50.11;97420.97;5155820;27;19973;-30
2022/11/10 08:30:54;;;;;;;;;;;;;;;20.34;49.91;97414.38;5155828;27;20563;-29
2022/11/10 09:16:15;;;;;;;;;;;;;;;20.47;49.14;97471.28;5155235;27;19987;-29
2022/11/10 09:18:40;;;;;;;;;;;;;;;20.39;49.31;97468.88;5156773;27;20001;-29
2022/11/10 09:21:13;;;;;;;;;;;;;;;20.27;49.78;97478.09;5156182;27;19989;-29
2022/11/10 09:23:39;;;;;;;;;;;;;;;20.30;50.05;97481.88;5154549;27;19925;-29
2022/11/10 09:26:07;;;;;;;;;;;;;;;20.20;50.13;97486.66;5156522;27;19911;-29
2022/11/10 09:31:35;;;;;;;;;;;;;;;20.41;49.64;97484.91;5155959;27;19914;-31
2022/11/10 09:34:00;;;;;;;;;;;;;;;20.33;49.84;97489.97;5156581;27;20324;-29
2022/11/10 09:36:25;;;;;;;;;;;;;;;20.43;49.65;97490.72;5155855;27;19907;-30
2022/11/10 09:38:51;;;;;;;;;;;;;;;20.43;49.53;97491.50;5156471;27;19986;-29
2022/11/10 09:41:16;;;;;;;;;;;;;;;20.44;49.45;97487.50;5156745;27;19930;-28
2022/11/10 09:43:45;;;;;;;;;;;;;;;20.46;49.26;97500.06;5156281;27;20427;-29
2022/11/10 09:46:31;;;;;;;;;;;;;;;20.38;49.77;97494.13;5156355;27;20347;-28
2022/11/10 09:49:02;;;;;;;;;;;;;;;20.39;49.73;97499.19;5155584;27;19964;-29
2022/11/10 09:51:33;;;;;;;;;;;;;;;20.40;49.70;97503.44;5156345;27;19955;-29
2022/11/10 09:54:04;;;;;;;;;;;;;;;20.29;49.99;97510.66;5156194;27;20010;-30
2022/11/10 09:56:33;;;;;;;;;;;;;;;20.38;49.87;97507.91;5156687;27;20331;-28
2022/11/10 09:58:58;;;;;;;;;;;;;;;20.40;49.60;97503.44;5156034;27;19907;-31
2022/11/10 10:01:27;;;;;;;;;;;;;;;20.46;49.58;97506.34;5156366;27;19907;-29
2022/11/10 10:03:59;;;;;;;;;;;;;;;20.48;49.45;97509.41;5155829;27;19919;-29
2022/11/10 10:06:25;;;;;;;;;;;;;;;20.50;49.29;97512.47;5156050;27;19965;-28
2022/11/10 10:09:01;;;;;;;;;;;;;;;20.47;49.49;97507.09;5155905;27;19965;-29
2022/11/10 10:11:35;;;;;;;;;;;;;;;20.37;49.63;97504.41;5155971;27;19959;-28
2022/11/10 10:14:18;;;;;;;;;;;;;;;20.40;49.60;97503.44;5155669;27;19907;-29
2022/11/10 10:16:50;;;;;;;;;;;;;;;20.24;50.04;97512.06;5155655;27;20350;-29
2022/11/10 10:19:22;;;;;;;;;;;;;;;20.34;49.89;97508.03;5155228;27;19906;-28
2022/11/10 10:21:50;;;;;;;;;;;;;;;20.46;49.51;97513.84;5155566;27;19922;-29
2022/11/10 10:24:19;;;;;;;;;;;;;;;20.50;49.24;97506.19;5155646;27;19951;-29
2022/11/10 10:26:52;;;;;;;;;;;;;;;20.51;49.36;97513.22;5155854;27;19914;-29
2022/11/10 10:29:23;;;;;;;;;;;;;;;20.50;49.45;97506.19;5136867;27;20001;-29
2022/11/10 10:31:49;;;;;;;;;;;;;;;20.50;49.61;97511.69;5136907;27;20282;-29
2022/11/10 10:34:16;;;;;;;;;;;;;;;20.50;49.52;97506.94;5154492;27;19907;-29
2022/11/10 10:36:43;;;;;;;;;;;;;;;20.45;49.91;97510.31;5155457;27;19966;-28
2022/11/10 10:39:16;;;;;;;;;;;;;;;20.36;49.96;97518.63;5155489;27;19909;-28
2022/11/10 10:41:45;;;;;;;;;;;;;;;20.44;49.85;97515.06;5155933;27;19975;-29
2022/11/10 10:44:14;;;;;;;;;;;;;;;20.35;50.27;97512.34;5155451;27;20359;-29
2022/11/10 10:46:46;;;;;;;;;;;;;;;20.43;49.76;97512.78;5155548;27;19997;-29
2022/11/10 10:49:18;;;;;;;;;;;;;;;20.43;49.72;97508.03;5144796;27;20274;-29
2022/11/10 10:51:43;;;;;;;;;;;;;;;20.39;49.80;97512.97;5132531;28;20006;-29
2022/11/10 10:54:25;;;;;;;;;;;;;;;20.43;49.83;97508.03;5134324;28;19999;-29
2022/11/10 10:56:59;;;;;;;;;;;;;;;20.48;49.64;97516.91;5134776;28;20006;-29
2022/11/10 10:59:24;;;;;;;;;;;;;;;20.54;49.54;97513.03;5137408;27;20006;-29
2022/11/10 11:01:54;;;;;;;;;;;;;;;20.54;49.42;97518.53;5134747;28;19950;-29
2022/11/10 11:04:27;;;;;;;;;;;;;;;20.48;50.26;97505.88;5134462;28;19911;-29
2022/11/10 11:06:58;;;;;;;;;;;;;;;20.35;51.39;97517.06;5134506;28;19911;-29
2022/11/10 11:09:25;;;;;;;;;;;;;;;20.30;50.35;97514.94;5134518;28;19914;-29
2022/11/10 11:12:01;;;;;;;;;;;;;;;20.42;50.00;97525.03;5134595;28;19914;-31
2022/11/10 11:14:27;;;;;;;;;;;;;;;20.29;50.78;97527.19;5134636;28;19995;-29
2022/11/10 11:16:52;;;;;;;;;;;;;;;20.39;50.03;97518.47;5134609;28;19998;-29
2022/11/10 11:19:19;;;;;;;;;;;;;;;20.43;50.03;97523.78;5134427;28;19968;-29
2022/11/10 11:22:03;;;;;;;;;;;;;;;20.37;50.65;97517.41;5134318;28;19930;-29
2022/11/10 11:24:37;;;;;;;;;;;;;;;20.39;50.08;97518.47;5134300;28;19907;-29
2022/11/10 11:27:03;;;;;;;;;;;;;;;20.40;50.27;97524.72;5134353;28;19911;-29
2022/11/10 11:29:31;;;;;;;;;;;;;;;20.48;49.87;97522.41;5134236;28;20344;-29
2022/11/10 11:32:16;;;;;;;;;;;;;;;20.27;51.91;97521.41;5133998;28;19914;-30
2022/11/10 11:34:50;;;;;;;;;;;;;;;20.45;50.08;97521.34;5134572;28;19907;-29
2022/11/10 11:37:28;;;;;;;;;;;;;;;20.38;51.12;97522.47;5134292;28;19907;-29
2022/11/10 11:39:56;;;;;;;;;;;;;;;20.42;50.26;97528.53;5134415;28;19909;-29
2022/11/10 11:42:39;;;;;;;;;;;;;;;20.50;49.93;97519.97;5134018;28;19907;-29
2022/11/10 11:45:04;;;;;;;;;;;;;;;20.48;49.98;97528.69;5134254;27;19952;-29
2022/11/10 11:47:35;;;;;;;;;;;;;;;20.50;49.89;97529.00;5137701;27;19911;-28
2022/11/10 11:50:01;;;;;;;;;;;;;;;20.34;50.65;97516.31;5137867;27;19907;-29
2022/11/10 11:52:37;;;;;;;;;;;;;;;20.56;49.87;97526.34;5137913;27;19916;-29
2022/11/10 11:55:21;;;;;;;;;;;;;;;20.47;50.03;97531.91;5137587;27;19918;-29
2022/11/10 11:58:05;;;;;;;;;;;;;;;20.49;49.90;97530.22;5137632;27;19907;-29
2022/11/10 12:00:39;;;;;;;;;;;;;;;20.44;51.32;97523.34;5137625;27;19958;-29
2022/11/10 12:03:28;;;;;;;;;;;;;;;20.45;50.13;97524.09;5137654;27;19960;-29
2022/11/10 12:05:57;;;;;;;;;;;;;;;20.40;50.34;97525.47;5137563;27;19965;-28
2022/11/10 12:08:37;;;;;;;;;;;;;;;20.40;51.89;97525.47;5137379;27;19915;-29
2022/11/10 12:11:05;;;;;;;;;;;;;;;20.39;50.48;97523.97;5137474;27;19911;-29
2022/11/10 12:13:35;;;;;;;;;;;;;;;20.44;50.18;97528.84;5137346;27;20310;-29
2022/11/10 12:16:10;;;;;;;;;;;;;;;20.51;50.11;97530.53;5156755;27;20001;-29
2022/11/10 12:18:37;;;;;;;;;;;;;;;20.49;50.13;97534.97;5158043;27;19998;-29
2022/11/10 12:21:05;;;;;;;;;;;;;;;20.52;49.97;97537.56;5157860;27;19915;-29
2022/11/10 12:23:48;;;;;;;;;;;;;;;20.56;49.83;97531.84;5139149;27;19968;-29
2022/11/10 12:26:21;;;;;;;;;;;;;;;20.55;50.00;97535.84;5158223;27;19951;-29
2022/11/10 12:28:51;;;;;;;;;;;;;;;20.53;49.97;97535.53;5157606;27;19955;-29
2022/11/10 12:31:19;;;;;;;;;;;;;;;20.52;50.02;97540.31;5157944;27;19907;-29
2022/11/10 12:34:07;;;;;;;;;;;;;;;20.55;49.90;97536.59;5157630;27;19941;-29
2022/11/10 12:36:33;;;;;;;;;;;;;;;20.56;50.10;97531.84;5143836;27;19946;-28
2022/11/10 12:39:16;;;;;;;;;;;;;;;20.58;50.15;97534.91;5157651;27;19956;-30
2022/11/10 12:41:44;;;;;;;;;;;;;;;20.57;50.00;97547.16;5157604;27;20391;-29
2022/11/10 12:44:12;;;;;;;;;;;;;;;20.53;50.21;97552.06;5157605;27;20306;-29
2022/11/10 12:46:40;;;;;;;;;;;;;;;20.56;50.39;97559.41;5157408;27;19907;-29
2022/11/10 12:49:10;;;;;;;;;;;;;;;20.60;49.97;97551.75;5157269;27;19918;-29
2022/11/10 12:51:41;;;;;;;;;;;;;;;20.64;49.85;97555.13;5157403;27;19936;-30
2022/11/10 12:54:11;;;;;;;;;;;;;;;20.63;49.88;97553.59;5157492;27;20343;-29
2022/11/10 12:56:41;;;;;;;;;;;;;;;20.61;50.09;97558.78;5156789;27;19994;-29
2022/11/10 12:59:18;;;;;;;;;;;;;;;20.61;50.00;97551.28;5156846;27;19914;-29
2022/11/10 13:01:45;;;;;;;;;;;;;;;20.60;50.23;97549.00;5157234;27;19911;-29
2022/11/10 13:04:13;;;;;;;;;;;;;;;20.51;50.51;97551.81;5157113;27;20271;-29
2022/11/10 13:06:44;;;;;;;;;;;;;;;20.49;50.29;97548.75;5153547;27;19907;-29
2022/11/10 13:09:21;;;;;;;;;;;;;;;20.47;50.46;97548.44;5157053;27;19911;-28
2022/11/10 13:12:02;;;;;;;;;;;;;;;20.44;50.60;97552.88;5157079;27;19907;-29
2022/11/10 13:14:28;;;;;;;;;;;;;;;20.56;50.06;97553.91;5157012;27;20354;-29
2022/11/10 13:16:55;;;;;;;;;;;;;;;20.53;50.61;97552.84;5156880;27;20338;-29
2022/11/10 13:19:23;;;;;;;;;;;;;;;20.57;50.29;97558.97;5156751;27;19930;-29
2022/11/10 13:21:51;;;;;;;;;;;;;;;20.53;50.95;97554.84;5156592;27;20288;-29
2022/11/10 13:24:23;;;;;;;;;;;;;;;20.53;50.44;97569.38;5156731;27;20351;-29
2022/11/10 13:26:51;;;;;;;;;;;;;;;20.50;50.60;97566.81;5156608;27;19907;-33
2022/11/10 13:29:28;;;;;;;;;;;;;;;20.57;50.30;97560.94;5136943;27;20283;-29
2022/11/10 13:31:54;;;;;;;;;;;;;;;20.54;51.01;97567.38;5156399;27;19907;-28
2022/11/10 13:34:27;;;;;;;;;;;;;;;20.55;50.25;97568.91;5156400;27;19914;-29
2022/11/10 13:36:53;;;;;;;;;;;;;;;20.54;50.28;97568.16;5156696;27;20327;-29
2022/11/10 13:39:18;;;;;;;;;;;;;;;20.58;50.29;97566.00;5156456;27;19944;-28
2022/11/10 13:41:45;;;;;;;;;;;;;;;20.62;50.04;97572.13;5156330;27;19907;-29
2022/11/10 13:44:19;;;;;;;;;;;;;;;20.61;49.94;97570.59;5156538;27;19914;-29
2022/11/10 13:47:02;;;;;;;;;;;;;;;20.59;50.29;97569.53;5156275;27;19907;-28
2022/11/10 13:49:46;;;;;;;;;;;;;;;20.56;50.41;97576.72;5156198;27;19918;-29
2022/11/10 13:52:25;;;;;;;;;;;;;;;20.54;50.61;97583.91;5156163;27;20385;-29
2022/11/10 13:55:03;;;;;;;;;;;;;;;20.52;50.59;97580.88;5156166;27;19959;-29
2022/11/10 13:57:36;;;;;;;;;;;;;;;20.57;50.40;97583.00;5155760;27;19913;-29
2022/11/10 14:00:20;;;;;;;;;;;;;;;20.53;50.60;97588.66;5155973;27;19949;-28
2022/11/10 14:02:51;;;;;;;;;;;;;;;20.54;50.51;97597.69;5156032;27;19911;-29
2022/11/10 14:05:28;;;;;;;;;;;;;;;20.50;50.73;97600.63;5137477;27;19956;-29
2022/11/10 14:08:08;;;;;;;;;;;;;;;20.53;50.76;97598.91;5155357;27;19979;-30
2022/11/10 14:10:41;;;;;;;;;;;;;;;20.13;52.09;97599.94;5156154;27;19948;-31